createdAt,value
2023-02-03T00:00:07.727Z,260.60
2023-02-03T00:03:02.431Z,105.50
2023-02-03T00:05:31.787Z,59.70
2023-02-03T00:07:59.744Z,92.60
2023-02-03T00:10:27.978Z,115.80
2023-02-03T00:12:57.666Z,99.70
2023-02-03T00:15:25.599Z,71.00
2023-02-03T00:17:53.672Z,67.60
2023-02-03T00:20:22.508Z,88.20
2023-02-03T00:22:50.354Z,79.20
2023-02-03T00:25:18.952Z,69.40
2023-02-03T00:27:47.294Z,132.10
2023-02-03T00:30:15.273Z,135.00
2023-02-03T00:32:43.108Z,95.10
2023-02-03T00:35:12.824Z,132.70
2023-02-03T00:37:40.741Z,91.70
2023-02-03T00:40:09.558Z,105.60
2023-02-03T00:42:37.605Z,66.40
2023-02-03T00:45:06.698Z,67.00
2023-02-03T00:47:34.752Z,118.00
2023-02-03T00:50:02.686Z,187.80
2023-02-03T00:52:30.629Z,236.50
2023-02-03T00:54:58.668Z,246.10
2023-02-03T00:57:26.474Z,164.10
2023-02-03T00:59:54.957Z,92.20
2023-02-03T01:02:22.952Z,93.40
2023-02-03T01:04:50.830Z,76.60
2023-02-03T01:07:19.202Z,74.60
2023-02-03T01:09:47.238Z,56.20
2023-02-03T01:12:15.019Z,56.30
2023-02-03T01:14:42.789Z,53.70
2023-02-03T01:17:10.650Z,52.00
2023-02-03T01:19:38.523Z,85.70
2023-02-03T01:22:06.481Z,109.30
2023-02-03T01:24:34.431Z,96.60
2023-02-03T01:27:02.353Z,80.40
2023-02-03T01:29:30.318Z,42.30
2023-02-03T01:31:58.442Z,37.40
2023-02-03T01:34:26.401Z,45.10
2023-02-03T01:36:54.509Z,60.70
2023-02-03T01:39:23.016Z,99.50
2023-02-03T01:41:50.867Z,80.20
2023-02-03T01:44:53.183Z,58.50
2023-02-03T01:47:29.741Z,54.00
2023-02-03T01:50:13.683Z,39.10
2023-02-03T01:52:44.311Z,29.60
2023-02-03T01:55:17.601Z,32.80
2023-02-03T01:57:56.433Z,36.60
2023-02-03T02:00:24.809Z,51.80
2023-02-03T02:03:00.598Z,50.30
2023-02-03T02:05:37.416Z,54.20
2023-02-03T02:08:07.195Z,42.30
2023-02-03T02:10:35.429Z,47.40
2023-02-03T02:13:06.037Z,51.50
2023-02-03T02:15:44.465Z,49.30
2023-02-03T02:18:32.704Z,46.00
2023-02-03T02:21:20.225Z,37.00
2023-02-03T02:24:26.775Z,50.50
2023-02-03T02:27:02.821Z,36.20
2023-02-03T02:29:37.097Z,31.80
2023-02-03T02:32:26.233Z,43.30
2023-02-03T02:35:06.349Z,49.30
2023-02-03T02:37:55.749Z,65.30
2023-02-03T02:40:30.038Z,96.90
2023-02-03T02:43:05.008Z,59.20
2023-02-03T02:45:44.778Z,37.90
2023-02-03T02:48:24.626Z,33.30
2023-02-03T02:50:56.777Z,31.60
2023-02-03T02:53:29.360Z,36.00
2023-02-03T02:55:59.864Z,28.90
2023-02-03T02:58:31.667Z,29.60
2023-02-03T03:00:59.653Z,29.90
2023-02-03T03:03:27.631Z,37.50
2023-02-03T03:06:05.720Z,43.40
2023-02-03T03:09:08.114Z,36.70
2023-02-03T03:11:47.532Z,33.70
2023-02-03T03:14:19.421Z,32.50
2023-02-03T03:16:57.683Z,33.10
2023-02-03T03:19:33.835Z,32.70
2023-02-03T03:22:05.982Z,48.20
2023-02-03T03:24:40.526Z,62.90
2023-02-03T03:27:15.366Z,66.50
2023-02-03T03:30:18.814Z,52.30
2023-02-03T03:32:46.887Z,45.30
2023-02-03T03:35:15.318Z,39.60
2023-02-03T03:38:00.795Z,37.90
2023-02-03T03:40:51.766Z,33.00
2023-02-03T03:43:29.803Z,36.40
2023-02-03T03:46:10.587Z,29.40
2023-02-03T03:48:47.997Z,25.40
2023-02-03T03:51:30.386Z,26.20
2023-02-03T03:54:04.068Z,21.30
2023-02-03T03:56:39.924Z,21.40
2023-02-03T03:59:11.536Z,22.30
2023-02-03T04:01:41.206Z,22.60
2023-02-03T04:04:11.545Z,25.80
2023-02-03T04:06:39.997Z,21.80
2023-02-03T04:09:08.368Z,20.00
2023-02-03T04:11:54.672Z,24.30
2023-02-03T04:14:22.630Z,25.30
2023-02-03T04:16:50.604Z,22.70
2023-02-03T04:19:18.472Z,22.50
2023-02-03T04:21:46.344Z,22.40
2023-02-03T04:24:14.657Z,22.60
2023-02-03T04:26:43.070Z,21.00
2023-02-03T04:29:10.928Z,25.80
2023-02-03T04:31:39.099Z,49.00
2023-02-03T04:34:07.130Z,34.80
2023-02-03T04:36:35.010Z,29.80
2023-02-03T04:39:03.354Z,22.10
2023-02-03T04:41:31.285Z,32.60
2023-02-03T04:43:59.095Z,27.20
2023-02-03T04:46:26.881Z,25.80
2023-02-03T04:48:54.658Z,23.20
2023-02-03T04:51:22.450Z,22.10
2023-02-03T04:53:50.468Z,22.50
2023-02-03T04:56:18.245Z,20.60
2023-02-03T04:58:46.155Z,20.00
2023-02-03T05:01:14.144Z,23.60
2023-02-03T05:03:42.062Z,21.60
2023-02-03T05:06:10.162Z,18.50
2023-02-03T05:08:37.923Z,19.90
2023-02-03T05:11:06.663Z,22.60
2023-02-03T05:13:34.636Z,22.60
2023-02-03T05:16:02.684Z,27.10
2023-02-03T05:18:30.565Z,23.40
2023-02-03T05:20:58.461Z,24.50
2023-02-03T05:23:26.313Z,24.70
2023-02-03T05:25:54.107Z,27.80
2023-02-03T05:28:22.014Z,22.00
2023-02-03T05:30:50.010Z,24.10
2023-02-03T05:33:18.056Z,24.00
2023-02-03T05:35:46.088Z,21.40
2023-02-03T05:38:13.897Z,29.00
2023-02-03T05:41:00.556Z,24.40
2023-02-03T05:43:28.767Z,25.30
2023-02-03T05:46:03.271Z,22.80
2023-02-03T05:48:32.248Z,34.10
2023-02-03T05:51:00.521Z,23.50
2023-02-03T05:53:28.405Z,20.20
2023-02-03T05:55:56.192Z,22.40
2023-02-03T05:58:24.369Z,25.60
2023-02-03T06:00:53.026Z,23.10
2023-02-03T06:03:21.085Z,31.40
2023-02-03T06:05:49.099Z,30.70
2023-02-03T06:08:17.240Z,27.90
2023-02-03T06:10:45.327Z,23.60
2023-02-03T06:13:15.496Z,22.70
2023-02-03T06:15:44.319Z,24.00
2023-02-03T06:18:12.207Z,27.10
2023-02-03T06:20:40.136Z,32.20
2023-02-03T06:23:08.280Z,31.00
2023-02-03T06:25:36.174Z,34.60
2023-02-03T06:28:04.185Z,41.80
2023-02-03T06:30:32.186Z,31.90
2023-02-03T06:33:00.337Z,24.60
2023-02-03T06:35:28.543Z,45.90
2023-02-03T06:37:56.706Z,44.60
2023-02-03T06:40:24.844Z,28.80
2023-02-03T06:42:53.260Z,38.40
2023-02-03T06:45:21.190Z,100.80
2023-02-03T06:47:48.992Z,50.30
2023-02-03T06:50:17.042Z,67.50
2023-02-03T06:52:45.136Z,47.70
2023-02-03T06:55:13.067Z,29.70
2023-02-03T06:57:45.813Z,22.10
2023-02-03T07:00:18.621Z,25.10
2023-02-03T07:02:52.933Z,26.40
2023-02-03T07:05:22.505Z,23.40
2023-02-03T07:07:51.685Z,26.20
2023-02-03T07:10:19.798Z,25.70
2023-02-03T07:12:48.135Z,22.70
2023-02-03T07:15:17.034Z,20.40
2023-02-03T07:17:51.420Z,46.30
2023-02-03T07:20:19.730Z,26.10
2023-02-03T07:22:52.331Z,21.30
2023-02-03T07:25:20.586Z,25.80
2023-02-03T07:27:48.622Z,35.50
2023-02-03T07:30:17.262Z,32.50
2023-02-03T07:32:53.000Z,32.00
2023-02-03T07:35:21.571Z,27.20
2023-02-03T07:37:49.338Z,19.20
2023-02-03T07:40:17.849Z,28.70
2023-02-03T07:42:48.054Z,29.00
2023-02-03T07:45:18.034Z,23.90
2023-02-03T07:47:45.861Z,46.80
2023-02-03T07:50:13.887Z,27.00
2023-02-03T07:52:41.918Z,22.00
2023-02-03T07:55:10.283Z,20.10
2023-02-03T07:57:43.500Z,41.00
2023-02-03T08:00:14.036Z,102.50
2023-02-03T08:02:43.818Z,62.70
2023-02-03T08:05:13.105Z,44.60
2023-02-03T08:07:41.773Z,34.60
2023-02-03T08:10:11.594Z,32.30
2023-02-03T08:12:40.171Z,27.00
2023-02-03T08:15:08.864Z,32.80
2023-02-03T08:17:40.010Z,25.90
2023-02-03T08:20:09.574Z,20.90
2023-02-03T08:22:37.424Z,24.40
2023-02-03T08:25:05.844Z,35.60
2023-02-03T08:27:33.802Z,23.40
2023-02-03T08:30:02.108Z,42.30
2023-02-03T08:32:29.956Z,37.90
2023-02-03T08:34:57.899Z,21.50
2023-02-03T08:37:26.568Z,32.30
2023-02-03T08:39:54.588Z,30.30
2023-02-03T08:42:22.622Z,31.70
2023-02-03T08:44:50.649Z,42.00
2023-02-03T08:47:18.855Z,21.00
2023-02-03T08:49:46.952Z,46.30
2023-02-03T08:52:18.017Z,26.50
2023-02-03T08:54:47.650Z,22.10
2023-02-03T08:57:16.149Z,23.50
2023-02-03T08:59:44.936Z,24.80
2023-02-03T09:02:19.465Z,52.20
2023-02-03T09:04:49.237Z,24.00
2023-02-03T09:07:17.825Z,19.80
2023-02-03T09:09:45.980Z,20.70
2023-02-03T09:12:14.193Z,49.90
2023-02-03T09:14:42.093Z,41.30
2023-02-03T09:17:10.965Z,27.50
2023-02-03T09:19:38.893Z,16.20
2023-02-03T09:22:06.869Z,14.30
2023-02-03T09:24:36.358Z,25.50
2023-02-03T09:27:04.331Z,60.80
2023-02-03T09:29:32.572Z,21.00
2023-02-03T09:32:02.460Z,20.10
2023-02-03T09:34:30.423Z,25.30
2023-02-03T09:36:58.515Z,14.00
2023-02-03T09:39:26.423Z,16.50
2023-02-03T09:42:28.664Z,23.30
2023-02-03T09:45:06.036Z,14.30
2023-02-03T09:47:38.716Z,19.90
2023-02-03T09:50:21.376Z,14.60
2023-02-03T09:52:50.970Z,13.60
2023-02-03T09:55:40.045Z,24.70
2023-02-03T09:58:18.461Z,45.60
2023-02-03T10:00:56.290Z,20.20
2023-02-03T10:03:35.052Z,12.10
2023-02-03T10:06:13.955Z,16.70
2023-02-03T10:08:54.171Z,16.30
2023-02-03T10:11:38.886Z,21.10
2023-02-03T10:14:09.637Z,29.30
2023-02-03T10:16:46.879Z,49.40
2023-02-03T10:19:23.237Z,44.20
2023-02-03T10:21:59.062Z,31.90
2023-02-03T10:24:48.810Z,63.90
2023-02-03T10:27:21.171Z,76.00
2023-02-03T10:29:58.164Z,36.40
2023-02-03T10:32:27.858Z,42.80
2023-02-03T10:34:56.551Z,49.90
2023-02-03T10:37:33.911Z,48.40
2023-02-03T10:40:02.535Z,29.50
2023-02-03T10:42:52.682Z,27.40
2023-02-03T10:45:20.959Z,43.90
2023-02-03T10:47:54.029Z,37.80
2023-02-03T10:50:31.493Z,39.90
2023-02-03T10:53:24.209Z,27.50
2023-02-03T10:56:02.794Z,39.70
2023-02-03T10:58:33.472Z,66.80
2023-02-03T11:01:06.428Z,34.70
2023-02-03T11:03:34.917Z,48.60
2023-02-03T11:06:10.052Z,56.70
2023-02-03T11:08:41.694Z,36.90
2023-02-03T11:11:14.590Z,67.00
2023-02-03T11:13:42.602Z,52.60
2023-02-03T11:16:20.959Z,37.80
2023-02-03T11:18:55.237Z,42.80
2023-02-03T11:21:25.190Z,30.10
2023-02-03T11:24:04.969Z,38.20
2023-02-03T11:26:40.474Z,44.30
2023-02-03T11:29:18.429Z,43.70
2023-02-03T11:31:53.453Z,36.10
2023-02-03T11:34:31.702Z,36.30
2023-02-03T11:37:27.042Z,52.00
2023-02-03T11:42:37.714Z,33.60
2023-02-03T11:45:25.332Z,41.30
2023-02-03T11:47:56.315Z,29.60
2023-02-03T11:50:49.845Z,76.30
2023-02-03T11:53:57.204Z,39.50
2023-02-03T11:56:52.257Z,99.00
2023-02-03T11:59:25.968Z,33.90
2023-02-03T12:02:09.871Z,29.30
2023-02-03T12:04:47.028Z,23.00
2023-02-03T12:07:47.016Z,21.80
2023-02-03T12:10:27.619Z,107.10
2023-02-03T12:13:35.112Z,47.80
2023-02-03T12:16:27.918Z,23.70
2023-02-03T12:19:27.655Z,30.50
2023-02-03T12:22:17.245Z,20.50
2023-02-03T12:25:11.025Z,28.20
2023-02-03T12:27:49.850Z,18.60
2023-02-03T12:30:39.662Z,13.20
2023-02-03T12:33:27.533Z,13.50
2023-02-03T12:36:08.110Z,15.60
2023-02-03T12:38:42.600Z,14.50
2023-02-03T12:41:17.371Z,18.00
2023-02-03T12:43:52.629Z,19.00
2023-02-03T12:46:42.004Z,9.70
2023-02-03T12:49:18.965Z,11.70
2023-02-03T12:51:58.379Z,11.60
2023-02-03T12:54:51.565Z,13.70
2023-02-03T12:57:49.191Z,16.20
2023-02-03T13:00:19.889Z,11.70
2023-02-03T13:03:19.708Z,12.10
2023-02-03T13:06:17.368Z,15.70
2023-02-03T13:08:56.999Z,11.90
2023-02-03T13:11:33.954Z,20.00
2023-02-03T13:14:18.527Z,17.10
2023-02-03T13:16:53.745Z,33.80
2023-02-03T13:19:29.306Z,21.20
2023-02-03T13:21:57.939Z,18.10
2023-02-03T13:24:28.348Z,10.40
2023-02-03T13:27:46.218Z,6.10
2023-02-03T13:43:54.144Z,11.40
2023-02-03T13:47:21.844Z,14.10
2023-02-03T13:50:25.928Z,17.00
2023-02-03T13:53:34.829Z,14.00
2023-02-03T13:57:13.774Z,16.50
2023-02-03T14:12:15.269Z,15.20
2023-02-03T14:16:05.986Z,13.60
2023-02-03T14:27:37.747Z,27.10
2023-02-03T14:30:57.899Z,34.90
2023-02-03T14:34:38.307Z,64.20
2023-02-03T14:38:01.428Z,14.80
2023-02-03T14:41:31.314Z,45.90
2023-02-03T14:45:14.699Z,24.60
2023-02-03T14:48:20.251Z,26.30
2023-02-03T14:51:26.443Z,24.50
2023-02-03T14:54:19.096Z,44.80
2023-02-03T14:57:52.075Z,35.80
2023-02-03T15:01:32.212Z,74.90
2023-02-03T15:04:27.119Z,175.40
2023-02-03T15:07:09.165Z,101.30
2023-02-03T15:09:55.934Z,83.60
2023-02-03T15:12:53.636Z,57.70
2023-02-03T15:15:46.926Z,71.50
2023-02-03T15:19:07.518Z,123.10
2023-02-03T15:21:56.070Z,116.60
2023-02-03T15:24:28.882Z,74.40
2023-02-03T15:27:50.432Z,79.70
2023-02-03T15:31:39.613Z,355.10
2023-02-03T16:07:46.081Z,254.00
2023-02-03T16:10:29.092Z,69.60
2023-02-03T16:13:55.032Z,149.10
2023-02-03T16:17:17.357Z,129.80
2023-02-03T16:20:12.208Z,71.30
2023-02-03T16:23:49.759Z,46.70
2023-02-03T16:27:07.396Z,47.00
2023-02-03T16:30:12.371Z,143.00
2023-02-03T16:34:08.221Z,172.40
2023-02-03T16:37:31.727Z,165.10
2023-02-03T16:40:42.641Z,53.20
2023-02-03T16:43:57.356Z,36.60
2023-02-03T16:47:11.547Z,50.90
2023-02-03T16:50:37.553Z,63.20
2023-02-03T16:53:55.962Z,98.60
2023-02-03T16:57:14.736Z,40.30
2023-02-03T16:59:51.844Z,29.30
2023-02-03T17:02:35.953Z,66.20
2023-02-03T17:05:51.265Z,83.70
2023-02-03T17:08:52.964Z,113.10
2023-02-03T17:11:27.199Z,52.50
2023-02-03T17:14:33.457Z,69.00
2023-02-03T17:17:09.969Z,49.20
2023-02-03T17:20:38.832Z,64.60
2023-02-03T17:23:58.038Z,58.20
2023-02-03T17:27:00.956Z,56.00
2023-02-03T17:29:42.870Z,41.20
2023-02-03T17:32:15.702Z,37.50
2023-02-03T17:35:19.972Z,44.20
2023-02-03T17:37:58.572Z,69.50
2023-02-03T17:55:17.588Z,74.90
2023-02-03T17:57:56.909Z,58.00
2023-02-03T18:00:45.585Z,37.80
2023-02-03T18:03:19.689Z,37.30
2023-02-03T18:06:16.346Z,39.40
2023-02-03T18:09:02.064Z,83.70
2023-02-03T18:11:43.184Z,71.50
2023-02-03T18:15:06.957Z,49.80
2023-02-03T18:17:56.821Z,54.20
2023-02-03T18:20:57.157Z,34.10
2023-02-03T18:24:04.188Z,25.90
2023-02-03T18:27:17.838Z,30.70
2023-02-03T18:30:46.266Z,21.00
2023-02-03T18:34:20.026Z,21.40
2023-02-03T18:38:00.276Z,22.20
2023-02-03T18:40:54.884Z,18.50
2023-02-03T18:43:52.627Z,32.80
2023-02-03T18:47:05.310Z,44.60
2023-02-03T18:50:25.701Z,29.40
2023-02-03T18:53:29.349Z,29.50
2023-02-03T18:57:02.904Z,18.80
2023-02-03T19:00:05.791Z,34.10
2023-02-03T19:03:17.434Z,25.30
2023-02-03T19:06:21.685Z,21.50
2023-02-03T19:19:03.658Z,18.20
2023-02-03T19:25:31.432Z,15.70
2023-02-03T19:28:30.526Z,15.20
2023-02-03T19:31:38.091Z,19.70
2023-02-03T19:34:43.407Z,33.20
2023-02-03T19:38:02.113Z,37.60
2023-02-03T19:41:02.852Z,77.80
2023-02-03T19:43:41.997Z,50.00
2023-02-03T19:46:36.959Z,65.90
2023-02-03T19:49:57.753Z,116.60
2023-02-03T19:52:59.510Z,49.90
2023-02-03T19:55:53.887Z,55.60
2023-02-03T19:58:56.152Z,26.60
2023-02-03T20:01:38.327Z,22.80
2023-02-03T20:04:28.378Z,43.40
2023-02-03T20:07:08.683Z,30.70
2023-02-03T20:10:33.020Z,55.00
2023-02-03T20:13:47.981Z,33.20
2023-02-03T20:16:33.342Z,39.90
2023-02-03T20:19:04.140Z,49.30
2023-02-03T20:21:44.092Z,52.40
2023-02-03T20:25:05.732Z,73.40
2023-02-03T20:27:39.189Z,41.90
2023-02-03T20:30:21.386Z,70.40
2023-02-03T20:32:52.293Z,18.70
2023-02-03T20:35:47.986Z,42.00
2023-02-03T20:38:28.659Z,34.70
2023-02-03T20:41:41.985Z,60.50
2023-02-03T20:44:20.062Z,42.80
2023-02-03T20:46:48.793Z,40.50
2023-02-03T20:49:32.675Z,189.20
2023-02-03T20:52:03.972Z,105.80
2023-02-03T20:54:37.607Z,71.90
2023-02-03T20:57:40.258Z,36.00
2023-02-03T21:01:05.973Z,34.00
2023-02-03T21:03:58.377Z,42.80
2023-02-03T21:06:59.150Z,41.00
2023-02-03T21:09:53.226Z,29.80
2023-02-03T21:13:22.150Z,38.70
2023-02-03T21:16:31.906Z,43.90
2023-02-03T21:19:03.561Z,49.00
2023-02-03T21:21:44.064Z,29.50
2023-02-03T21:24:45.643Z,20.90
2023-02-03T21:27:49.454Z,24.00
2023-02-03T21:30:39.781Z,31.20
2023-02-03T21:33:44.093Z,26.00
2023-02-03T21:36:23.347Z,19.00
2023-02-03T21:38:56.935Z,15.90
2023-02-03T21:41:33.295Z,18.20
2023-02-03T21:44:01.852Z,9.80
2023-02-03T21:46:55.255Z,17.40
2023-02-03T21:49:35.662Z,12.80
2023-02-03T21:52:03.954Z,16.00
2023-02-03T21:54:33.852Z,18.60
2023-02-03T21:57:02.566Z,11.60
2023-02-03T21:59:46.929Z,25.90
2023-02-03T22:02:39.228Z,12.40
2023-02-03T22:05:30.989Z,17.50
2023-02-03T22:07:59.321Z,12.90
2023-02-03T22:10:30.311Z,14.40
2023-02-03T22:12:59.056Z,9.40
2023-02-03T22:15:27.162Z,10.40
2023-02-03T22:18:13.694Z,13.20
2023-02-03T22:20:44.899Z,7.80
2023-02-03T22:23:39.015Z,6.50
2023-02-03T22:26:33.214Z,11.00
2023-02-03T22:29:14.839Z,9.30
2023-02-03T22:31:48.050Z,35.10
2023-02-03T22:34:17.393Z,7.60
2023-02-03T22:36:45.392Z,15.80
2023-02-03T22:39:16.406Z,19.90
2023-02-03T22:41:44.578Z,20.60
2023-02-03T22:44:20.968Z,23.70
2023-02-03T22:46:56.729Z,16.60
2023-02-03T22:49:27.865Z,23.30
2023-02-03T22:53:01.778Z,20.70
2023-02-03T22:56:00.836Z,13.40
2023-02-03T22:58:31.837Z,34.80
2023-02-03T23:01:00.393Z,31.70
2023-02-03T23:03:33.139Z,24.20
2023-02-03T23:06:03.850Z,17.90
2023-02-03T23:08:52.880Z,31.20
2023-02-03T23:11:34.125Z,36.40
2023-02-03T23:14:05.751Z,21.30
2023-02-03T23:16:37.527Z,46.50
2023-02-03T23:19:05.761Z,20.50
2023-02-03T23:21:36.195Z,29.30
2023-02-03T23:24:13.433Z,111.20
2023-02-03T23:26:41.736Z,159.70
2023-02-03T23:29:21.592Z,43.30
2023-02-03T23:32:08.768Z,35.60
2023-02-03T23:35:20.387Z,28.70
2023-02-03T23:38:15.643Z,8.10
2023-02-03T23:41:29.623Z,19.80
2023-02-03T23:44:58.562Z,10.20
2023-02-03T23:48:21.345Z,15.90
2023-02-03T23:51:09.440Z,14.40
2023-02-03T23:54:18.161Z,16.30
2023-02-03T23:56:58.993Z,14.30
